地図

経路データ

SID SEASON NUMBER BASIN SUBBASIN NAME ISO_TIME NATURE LAT LON WMO_WIND WMO_PRES WMO_AGENCY TRACK_TYPE DIST2LAND LANDFALL IFLAG USA_AGENCY USA_ATCF_ID USA_LAT USA_LON USA_RECORD USA_STATUS USA_WIND USA_PRES USA_SSHS USA_R34_NE USA_R34_SE USA_R34_SW USA_R34_NW USA_R50_NE USA_R50_SE USA_R50_SW USA_R50_NW USA_R64_NE USA_R64_SE USA_R64_SW USA_R64_NW USA_POCI USA_ROCI USA_RMW USA_EYE TOKYO_LAT TOKYO_LON TOKYO_GRADE TOKYO_WIND TOKYO_PRES TOKYO_R50_DIR TOKYO_R50_LONG TOKYO_R50_SHORT TOKYO_R30_DIR TOKYO_R30_LONG TOKYO_R30_SHORT TOKYO_LAND CMA_LAT CMA_LON CMA_CAT CMA_WIND CMA_PRES HKO_LAT HKO_LON HKO_CAT HKO_WIND HKO_PRES NEWDELHI_LAT NEWDELHI_LON NEWDELHI_GRADE NEWDELHI_WIND NEWDELHI_PRES NEWDELHI_CI NEWDELHI_DP NEWDELHI_POCI REUNION_LAT REUNION_LON REUNION_TYPE REUNION_WIND REUNION_PRES REUNION_TNUM REUNION_CI REUNION_RMW REUNION_R34_NE REUNION_R34_SE REUNION_R34_SW REUNION_R34_NW REUNION_R50_NE REUNION_R50_SE REUNION_R50_SW REUNION_R50_NW REUNION_R64_NE REUNION_R64_SE REUNION_R64_SW REUNION_R64_NW BOM_LAT BOM_LON BOM_TYPE BOM_WIND BOM_PRES BOM_TNUM BOM_CI BOM_RMW BOM_R34_NE BOM_R34_SE BOM_R34_SW BOM_R34_NW BOM_R50_NE BOM_R50_SE BOM_R50_SW BOM_R50_NW BOM_R64_NE BOM_R64_SE BOM_R64_SW BOM_R64_NW BOM_ROCI BOM_POCI BOM_EYE BOM_POS_METHOD BOM_PRES_METHOD NADI_LAT NADI_LON NADI_CAT NADI_WIND NADI_PRES WELLINGTON_LAT WELLINGTON_LON WELLINGTON_WIND WELLINGTON_PRES DS824_LAT DS824_LON DS824_STAGE DS824_WIND DS824_PRES TD9636_LAT TD9636_LON TD9636_STAGE TD9636_WIND TD9636_PRES TD9635_LAT TD9635_LON TD9635_WIND TD9635_PRES TD9635_ROCI NEUMANN_LAT NEUMANN_LON NEUMANN_CLASS NEUMANN_WIND NEUMANN_PRES MLC_LAT MLC_LON MLC_CLASS MLC_WIND MLC_PRES USA_GUST BOM_GUST BOM_GUST_PER REUNION_GUST REUNION_GUST_PER USA_SEAHGT USA_SEARAD_NE USA_SEARAD_SE USA_SEARAD_SW USA_SEARAD_NW STORM_SPEED STORM_DIR
1911304N10146 1911 69 WP MM NOT_NAMED 1911-10-30 16:00:00 NR 10.0000 145.600 main 1360 1360 __________O___ -1 10.0000 145.600 7 12 298
1911304N10146 1911 69 WP MM NOT_NAMED 1911-10-30 18:00:00 NR 10.1836 145.249 main 1386 1386 __________P___ -1 10.1836 145.249 7 12 298
1911304N10146 1911 69 WP MM NOT_NAMED 1911-10-30 21:00:00 NR 10.4522 144.741 main 1427 1427 __________P___ -1 10.4522 144.741 7 11 299
1911304N10146 1911 69 WP MM NOT_NAMED 1911-10-31 00:00:00 NR 10.7045 144.282 main 1456 1456 __________P___ -1 10.7045 144.282 7 10 300
1911304N10146 1911 69 WP MM NOT_NAMED 1911-10-31 03:00:00 NR 10.9315 143.903 main 1486 1486 __________P___ -1 10.9315 143.903 7 8 302
1911304N10146 1911 69 WP MM NOT_NAMED 1911-10-31 04:00:00 NR 11.0000 143.800 main 1500 1500 __________O___ -1 11.0000 143.800 7 7 306
1911304N10146 1911 69 WP MM NOT_NAMED 1911-10-31 06:00:00 NR 11.1251 143.631 main 1515 1515 __________P___ -1 11.1251 143.631 7 5 310
1911304N10146 1911 69 WP MM NOT_NAMED 1911-10-31 09:00:00 NR 11.2880 143.454 main 1540 1542 __________P___ -1 11.2880 143.454 7 4 316
1911304N10146 1911 69 WP MM NOT_NAMED 1911-10-31 12:00:00 NR 11.4292 143.334 main 1556 1556 __________P___ -1 11.4292 143.334 7 3 322
1911304N10146 1911 69 WP MM NOT_NAMED 1911-10-31 15:00:00 NR 11.5582 143.235 main 1579 1579 __________P___ -1 11.5582 143.235 7 3 322
1911304N10146 1911 69 WP MM NOT_NAMED 1911-10-31 16:00:00 NR 11.6000 143.200 main 1579 1579 __________O___ -1 11.6000 143.200 7 4 314
1911304N10146 1911 69 WP MM NOT_NAMED 1911-10-31 18:00:00 NR 11.6864 143.103 main 1585 1581 __________P___ -1 11.6864 143.103 7 4 311
1911304N10146 1911 69 WP MM NOT_NAMED 1911-10-31 21:00:00 NR 11.8096 142.956 main 1592 1588 __________P___ -1 11.8096 142.956 7 4 310
1911304N10146 1911 69 WP MM NOT_NAMED 1911-11-01 00:00:00 NR 11.9308 142.808 main 1595 1595 __________P___ -1 11.9308 142.808 7 4 310
1911304N10146 1911 69 WP MM NOT_NAMED 1911-11-01 03:00:00 NR 12.0562 142.653 main 1613 1610 __________P___ -1 12.0562 142.653 7 4 310
1911304N10146 1911 69 WP MM NOT_NAMED 1911-11-01 04:00:00 NR 12.1000 142.600 main 1610 1610 __________O___ -1 12.1000 142.600 7 4 315
1911304N10146 1911 69 WP MM NOT_NAMED 1911-11-01 06:00:00 NR 12.1967 142.515 main 1617 1617 __________P___ -1 12.1967 142.515 7 4 320
1911304N10146 1911 69 WP MM NOT_NAMED 1911-11-01 09:00:00 NR 12.3482 142.382 main 1625 1632 __________P___ -1 12.3482 142.382 7 4 316
1911304N10146 1911 69 WP MM NOT_NAMED 1911-11-01 12:00:00 NR 12.5020 142.218 main 1640 1640 __________P___ -1 12.5020 142.218 7 5 309
1911304N10146 1911 69 WP MM NOT_NAMED 1911-11-01 15:00:00 NR 12.6520 141.993 main 1655 1651 __________P___ -1 12.6520 141.993 7 6 303
1911304N10146 1911 69 WP MM NOT_NAMED 1911-11-01 16:00:00 NR 12.7000 141.900 main 1651 1642 __________O___ -1 12.7000 141.900 7 8 290
1911304N10146 1911 69 WP MM NOT_NAMED 1911-11-01 18:00:00 NR 12.7818 141.621 main 1648 1638 __________P___ -1 12.7818 141.621 7 9 285
1911304N10146 1911 69 WP MM NOT_NAMED 1911-11-01 21:00:00 NR 12.8976 141.139 main 1638 1631 __________P___ -1 12.8976 141.139 7 10 284
1911304N10146 1911 69 WP MM NOT_NAMED 1911-11-02 00:00:00 NR 13.0160 140.663 main 1634 1595 __________P___ -1 13.0160 140.663 7 9 287
1911304N10146 1911 69 WP MM NOT_NAMED 1911-11-02 03:00:00 NR 13.1498 140.287 main 1595 1585 __________P___ -1 13.1498 140.287 7 7 292
1911304N10146 1911 69 WP MM NOT_NAMED 1911-11-02 04:00:00 NR 13.2000 140.200 main 1585 1585 __________O___ -1 13.2000 140.200 7 4 325
1911304N10146 1911 69 WP MM NOT_NAMED 1911-11-02 06:00:00 NR 13.3264 140.156 main 1587 1587 __________P___ -1 13.3264 140.156 7 4 2
1911304N10146 1911 69 WP MM NOT_NAMED 1911-11-02 09:00:00 NR 13.5355 140.218 main 1590 1590 __________P___ -1 13.5355 140.218 7 5 25
1911304N10146 1911 69 WP MM NOT_NAMED 1911-11-02 12:00:00 NR 13.7484 140.354 main 1615 1616 __________P___ -1 13.7484 140.354 7 5 32
1911304N10146 1911 69 WP MM NOT_NAMED 1911-11-02 15:00:00 NR 13.9430 140.477 main 1629 1631 __________P___ -1 13.9430 140.477 7 4 29
1911304N10146 1911 69 WP MM NOT_NAMED 1911-11-02 16:00:00 NR 14.0000 140.500 main 1631 1631 __________O___ -1 14.0000 140.500 7 3 352
1911304N10146 1911 69 WP MM NOT_NAMED 1911-11-02 18:00:00 NR 14.0842 140.468 main 1633 1622 __________P___ -1 14.0842 140.468 7 3 326
1911304N10146 1911 69 WP MM NOT_NAMED 1911-11-02 21:00:00 NR 14.1853 140.369 main 1624 1605 __________P___ -1 14.1853 140.369 7 3 309
1911304N10146 1911 69 WP MM NOT_NAMED 1911-11-03 00:00:00 NR 14.2726 140.226 main 1605 1595 __________P___ -1 14.2726 140.226 7 4 301
1911304N10146 1911 69 WP MM NOT_NAMED 1911-11-03 03:00:00 NR 14.3649 140.058 main 1597 1587 __________P___ -1 14.3649 140.058 7 4 300
1911304N10146 1911 69 WP MM NOT_NAMED 1911-11-03 04:00:00 NR 14.4000 140.000 main 1587 1576 __________O___ -1 14.4000 140.000 7 4 308
1911304N10146 1911 69 WP MM NOT_NAMED 1911-11-03 06:00:00 NR 14.4912 139.892 main 1579 1559 __________P___ -1 14.4912 139.892 7 4 311
1911304N10146 1911 69 WP MM NOT_NAMED 1911-11-03 09:00:00 NR 14.6407 139.718 main 1559 1541 __________P___ -1 14.6407 139.718 7 5 312
1911304N10146 1911 69 WP MM NOT_NAMED 1911-11-03 12:00:00 NR 14.7971 139.536 main 1541 1533 __________P___ -1 14.7971 139.536 7 5 312
1911304N10146 1911 69 WP MM NOT_NAMED 1911-11-03 15:00:00 NR 14.9509 139.357 main 1535 1524 __________P___ -1 14.9509 139.357 7 5 312
1911304N10146 1911 69 WP MM NOT_NAMED 1911-11-03 16:00:00 NR 15.0000 139.300 main 1524 1513 __________O___ -1 15.0000 139.300 7 4 309
1911304N10146 1911 69 WP MM NOT_NAMED 1911-11-03 18:00:00 NR 15.0759 139.197 main 1515 1497 __________P___ -1 15.0759 139.197 7 4 307
1911304N10146 1911 69 WP MM NOT_NAMED 1911-11-03 21:00:00 NR 15.1831 139.048 main 1497 1488 __________P___ -1 15.1831 139.048 7 4 308
1911304N10146 1911 69 WP MM NOT_NAMED 1911-11-04 00:00:00 NR 15.2992 138.902 main 1488 1480 __________P___ -1 15.2992 138.902 7 4 312
1911304N10146 1911 69 WP MM NOT_NAMED 1911-11-04 03:00:00 NR 15.4428 138.752 main 1480 1472 __________P___ -1 15.4428 138.752 7 4 316
1911304N10146 1911 69 WP MM NOT_NAMED 1911-11-04 04:00:00 NR 15.5000 138.700 main 1472 1464 __________O___ -1 15.5000 138.700 7 5 321
1911304N10146 1911 69 WP MM NOT_NAMED 1911-11-04 06:00:00 NR 15.6381 138.586 main 1464 1449 __________P___ -1 15.6381 138.586 7 6 323
1911304N10146 1911 69 WP MM NOT_NAMED 1911-11-04 09:00:00 NR 15.8769 138.410 main 1452 1437 __________P___ -1 15.8769 138.410 7 6 326
1911304N10146 1911 69 WP MM NOT_NAMED 1911-11-04 12:00:00 NR 16.1395 138.231 main 1437 1433 __________P___ -1 16.1395 138.231 7 6 327
1911304N10146 1911 69 WP MM NOT_NAMED 1911-11-04 15:00:00 NR 16.4105 138.056 main 1436 1426 __________P___ -1 16.4105 138.056 7 6 329
1911304N10146 1911 69 WP MM NOT_NAMED 1911-11-04 16:00:00 NR 16.5000 138.000 main 1430 1423 __________O___ -1 16.5000 138.000 7 6 326
1911304N10146 1911 69 WP MM NOT_NAMED 1911-11-04 18:00:00 NR 16.6457 137.884 main 1423 1410 __________P___ -1 16.6457 137.884 7 5 323
1911304N10146 1911 69 WP MM NOT_NAMED 1911-11-04 21:00:00 NR 16.8638 137.715 main 1414 1408 __________P___ -1 16.8638 137.715 7 6 326
1911304N10146 1911 69 WP MM NOT_NAMED 1911-11-05 00:00:00 NR 17.1035 137.563 main 1412 1402 __________P___ -1 17.1035 137.563 7 6 333
1911304N10146 1911 69 WP MM NOT_NAMED 1911-11-05 03:00:00 NR 17.3899 137.435 main 1405 1405 __________P___ -1 17.3899 137.435 7 6 339
1911304N10146 1911 69 WP MM NOT_NAMED 1911-11-05 04:00:00 NR 17.5000 137.400 main 1409 1409 __________O___ -1 17.5000 137.400 7 8 344
1911304N10146 1911 69 WP MM NOT_NAMED 1911-11-05 06:00:00 NR 17.7490 137.326 main 1409 1413 __________P___ -1 17.7490 137.326 7 8 347
1911304N10146 1911 69 WP MM NOT_NAMED 1911-11-05 09:00:00 NR 18.1730 137.239 main 1423 1423 __________P___ -1 18.1730 137.239 7 9 352
1911304N10146 1911 69 WP MM NOT_NAMED 1911-11-05 12:00:00 NR 18.6407 137.190 main 1444 1449 __________P___ -1 18.6407 137.190 7 10 358
1911304N10146 1911 69 WP MM NOT_NAMED 1911-11-05 15:00:00 NR 19.1334 137.189 main 1471 1460 __________P___ -1 19.1334 137.189 7 10 2
1911304N10146 1911 69 WP MM NOT_NAMED 1911-11-05 16:00:00 NR 19.3000 137.200 main 1460 1430 __________O___ -1 19.3000 137.200 4 10 1
1911304N10146 1911 69 WP MM NOT_NAMED 1911-11-05 18:00:00 NR 19.6243 137.215 main 1430 1384 __________P___ -1 19.6243 137.215 4 10 5
1911304N10146 1911 69 WP MM NOT_NAMED 1911-11-05 21:00:00 NR 20.1235 137.281 main 1384 1340 __________P___ -1 20.1235 137.281 4 10 10
1911304N10146 1911 69 WP MM NOT_NAMED 1911-11-06 00:00:00 NR 20.6298 137.409 main 1340 1301 __________P___ -1 20.6298 137.409 4 11 17
1911304N10146 1911 69 WP MM NOT_NAMED 1911-11-06 03:00:00 NR 21.1340 137.613 main 1301 1288 __________P___ -1 21.1340 137.613 4 11 22
1911304N10146 1911 69 WP MM NOT_NAMED 1911-11-06 04:00:00 NR 21.3000 137.700 main 1288 1270 __________O___ -1 21.3000 137.700 4 11 28
1911304N10146 1911 69 WP MM NOT_NAMED 1911-11-06 06:00:00 NR 21.6250 137.891 main 1270 1237 __________P___ -1 21.6250 137.891 4 11 32
1911304N10146 1911 69 WP MM NOT_NAMED 1911-11-06 09:00:00 NR 22.1062 138.246 main 1237 1213 __________P___ -1 22.1062 138.246 4 12 37
1911304N10146 1911 69 WP MM NOT_NAMED 1911-11-06 12:00:00 NR 22.5798 138.668 main 1218 1203 __________P___ -1 22.5798 138.668 4 13 41
1911304N10146 1911 69 WP MM NOT_NAMED 1911-11-06 15:00:00 NR 23.0461 139.137 main 1204 1188 __________P___ -1 23.0461 139.137 4 13 43
1911304N10146 1911 69 WP MM NOT_NAMED 1911-11-06 16:00:00 NR 23.2000 139.300 main 1188 1165 __________O___ -1 23.2000 139.300 4 12 42
1911304N10146 1911 69 WP MM NOT_NAMED 1911-11-06 18:00:00 NR 23.4939 139.579 main 1165 1132 __________P___ -1 23.4939 139.579 4 12 42
1911304N10146 1911 69 WP MM NOT_NAMED 1911-11-06 21:00:00 NR 23.9285 140.028 main 1136 1103 __________P___ -1 23.9285 140.028 4 12 45
1911304N10146 1911 69 WP MM NOT_NAMED 1911-11-07 00:00:00 NR 24.3706 140.544 main 1103 1088 __________P___ -1 24.3706 140.544 4 14 49
1911304N10146 1911 69 WP MM NOT_NAMED 1911-11-07 03:00:00 NR 24.8366 141.164 main 1093 1082 __________P___ -1 24.8366 141.164 4 15 51
1911304N10146 1911 69 WP MM NOT_NAMED 1911-11-07 04:00:00 NR 25.0000 141.400 main 1082 1073 __________O___ -1 25.0000 141.400 4 17 54
1911304N10146 1911 69 WP MM NOT_NAMED 1911-11-07 06:00:00 NR 25.3409 141.922 main 1079 1041 __________P___ -1 25.3409 141.922 4 19 55
1911304N10146 1911 69 WP MM NOT_NAMED 1911-11-07 09:00:00 NR 25.8804 142.811 main 1041 1015 __________P___ -1 25.8804 142.811 4 20 57
1911304N10146 1911 69 WP MM NOT_NAMED 1911-11-07 12:00:00 NR 26.4416 143.798 main 1018 993 __________P___ -1 26.4416 143.798 4 21 58
1911304N10146 1911 69 WP MM NOT_NAMED 1911-11-07 15:00:00 NR 27.0107 144.844 main 996 990 __________P___ -1 27.0107 144.844 4 22 59
1911304N10146 1911 69 WP MM NOT_NAMED 1911-11-07 16:00:00 NR 27.2000 145.200 main 995 __________O___ -1 27.2000 145.200 4 22 59

デジタル台風データ・検索

IBTrACS Databaseについて

本データベースは、米国NOAAが公開する1842年以降の世界の熱帯低気圧のベストトラックデータアーカイブInternational Best Track Archive for Climate Stewardship (IBTrACS)を、ウェブで閲覧しやすい形式に変換したものです。

最終更新日:2021-11-26